Terminal Aerodrome Forecast
Issued by NWS Quad Cities IA IL

Home | Current Version | Previous Version | Text Only | Print | Product List | Glossary On
Versions: 1 2 3 4 5 6 7 8 9 10 11 12 13 14 15 16 17 18 19 20 21 22 23 24 25 26 27
000
FTUS43 KDVN 230500
TAFMLI
TAF
KMLI 230520Z 2306/2406 19014G20KT P6SM OVC010
     FM230800 18012KT 6SM BR OVC008
     FM231400 17010KT 2SM -RA BR OVC005
     FM231900 15007KT 1 1/2SM RA BR OVC004
     FM240200 14005KT 1/2SM -RA FG OVC003=

USA.gov is the U.S. government's official web portal to all federal, state and local government web resources and services.